Time;durP1;ratioP1;P1;durP2;ratioP2;P2;SDS_P1;SDS_P2;PMS_P1;PMS_P2;Temp;Humidity;BMP_temperature;BMP_pressure;BME280_temperature;BME280_humidity;BME280_pressure;Samples;Min_cycle;Max_cycle;Signal;HPM_P1;HPM_P2
2023/08/06 00:01:03;;;;;;;2.83;2.53;;;18.10;92.30;;;20.88;60.23;100641.38;5035724;28;20203;-62
2023/08/06 00:03:31;;;;;;;2.80;2.53;;;18.10;92.50;;;20.91;60.71;100640.06;5035436;28;20191;-61
2023/08/06 00:05:58;;;;;;;2.60;2.40;;;18.10;92.60;;;20.92;60.46;100636.34;5035339;28;20195;-62
2023/08/06 00:08:25;;;;;;;2.53;2.33;;;18.10;92.60;;;20.95;60.58;100641.19;5035182;28;20725;-61
2023/08/06 00:10:52;;;;;;;2.43;2.23;;;18.10;92.60;;;20.96;60.11;100642.84;5034800;28;20214;-63
2023/08/06 00:13:19;;;;;;;2.77;2.30;;;18.10;92.50;;;20.97;60.54;100647.13;5035066;28;20217;-62
2023/08/06 00:15:46;;;;;;;3.03;2.73;;;18.10;92.40;;;20.97;60.51;100643.66;5035520;28;20269;-61
2023/08/06 00:18:14;;;;;;;2.33;2.13;;;18.10;92.40;;;20.95;60.38;100641.19;5034167;28;20286;-62
2023/08/06 00:20:41;;;;;;;2.40;2.20;;;18.10;92.30;;;20.92;60.40;100630.97;5035131;28;20218;-65
2023/08/06 00:23:08;;;;;;;3.47;2.70;;;18.10;92.30;;;20.90;60.40;100641.13;5034681;28;20198;-62
2023/08/06 00:25:36;;;;;;;2.40;2.20;;;18.10;92.30;;;20.91;59.88;100640.06;5035147;28;20724;-62
2023/08/06 00:28:03;;;;;;;2.27;2.07;;;18.10;92.40;;;20.89;60.29;100634.94;5034554;28;20557;-61
2023/08/06 00:30:31;;;;;;;2.43;2.13;;;18.10;92.50;;;20.91;60.50;100629.38;5033263;28;20218;-61
2023/08/06 00:32:58;;;;;;;3.23;2.30;;;18.10;92.60;;;20.90;60.35;100633.09;5034762;28;20218;-62
2023/08/06 00:35:27;;;;;;;2.33;2.13;;;18.10;92.60;;;20.90;60.07;100633.91;5034886;28;20289;-62
2023/08/06 00:37:54;;;;;;;2.10;2.00;;;18.10;92.50;;;20.91;60.79;100630.19;5034624;28;20532;-62
2023/08/06 00:40:22;;;;;;;4.23;2.37;;;18.10;92.60;;;20.93;60.77;100630.75;5034188;28;20238;-61
2023/08/06 00:42:49;;;;;;;2.63;2.27;;;18.10;92.60;;;20.95;60.20;100622.47;5034626;28;20291;-67
2023/08/06 00:45:16;;;;;;;2.60;2.40;;;18.10;92.60;;;20.97;60.62;100627.59;5034305;28;20625;-61
2023/08/06 00:47:45;;;;;;;2.63;2.40;;;18.20;92.50;;;20.99;60.30;100631.63;5034514;28;20273;-64
2023/08/06 00:50:13;;;;;;;2.70;2.50;;;18.20;92.60;;;21.00;60.80;100627.91;5034391;28;20536;-62
2023/08/06 00:52:41;;;;;;;3.67;2.90;;;18.20;92.60;;;21.02;59.98;100619.63;5034375;28;20191;-62
2023/08/06 00:55:10;;;;;;;6.27;3.30;;;18.20;92.50;;;21.05;60.64;100619.16;5034625;28;20555;-63
2023/08/06 00:57:37;;;;;;;2.87;2.67;;;18.20;92.50;;;21.08;59.73;100619.50;5034283;28;20233;-64
2023/08/06 01:00:06;;;;;;;2.87;2.10;;;18.20;92.30;;;21.10;60.25;100609.34;5034005;28;20234;-61
2023/08/06 01:02:33;;;;;;;3.53;3.23;;;18.20;92.30;;;21.13;60.01;100622.25;5033845;28;20302;-61
2023/08/06 01:05:00;;;;;;;3.43;3.13;;;18.20;92.30;;;21.14;59.87;100607.78;5033775;28;20195;-62
2023/08/06 01:07:51;;;;;;;3.53;3.23;;;18.30;92.20;;;21.12;59.30;100601.88;5034450;28;20190;-62
2023/08/06 01:10:34;;;;;;;4.30;3.90;;;18.30;92.20;;;21.07;58.83;100601.81;5034376;28;20218;-63
2023/08/06 01:13:15;;;;;;;3.63;3.33;;;18.30;91.70;;;21.03;59.14;100589.94;5035967;28;20281;-61
2023/08/06 01:15:47;;;;;;;4.00;3.60;;;18.20;91.80;;;21.03;59.38;100584.59;5034302;28;20282;-63
2023/08/06 01:18:15;;;;;;;3.70;3.37;;;18.20;92.00;;;21.03;59.70;100578.41;5034105;28;20189;-62
2023/08/06 01:20:44;;;;;;;3.73;3.33;;;18.20;92.00;;;21.02;59.34;100580.28;5033871;28;20253;-62
2023/08/06 01:23:11;;;;;;;4.33;3.93;;;18.20;92.00;;;21.01;59.88;100581.34;5033733;28;20222;-62
2023/08/06 01:25:48;;;;;;;4.93;3.97;;;18.20;92.00;;;20.99;59.28;100572.75;5034018;28;20190;-62
2023/08/06 01:28:27;;;;;;;4.97;3.87;;;18.20;92.00;;;20.99;59.87;100572.75;5033825;28;20194;-61
2023/08/06 01:31:00;;;;;;;3.47;3.17;;;18.20;92.10;;;21.00;60.04;100577.03;5049295;28;20691;-61
2023/08/06 01:33:32;;;;;;;3.73;3.40;;;18.20;92.20;;;21.02;59.91;100566.91;5034007;28;20288;-63
2023/08/06 01:36:03;;;;;;;4.50;3.60;;;18.20;92.30;;;21.06;60.05;100560.00;5034030;28;20677;-61
2023/08/06 01:38:30;;;;;;;3.70;3.10;;;18.20;92.30;;;21.10;59.91;100561.16;5033785;28;20679;-61
2023/08/06 01:40:57;;;;;;;4.03;3.63;;;18.20;92.60;;;21.12;59.81;100568.94;5033581;28;20297;-63
2023/08/06 01:43:24;;;;;;;3.20;2.90;;;18.20;92.10;;;21.12;59.68;100571.63;5034247;28;20264;-61
2023/08/06 01:45:51;;;;;;;4.00;3.53;;;18.20;92.00;;;21.04;59.22;100570.13;5033936;28;20269;-63
2023/08/06 01:48:18;;;;;;;3.50;3.20;;;18.20;91.70;;;20.99;59.48;100567.38;5033972;28;20606;-63
2023/08/06 01:50:45;;;;;;;2.87;2.67;;;18.20;91.70;;;20.95;59.62;100568.94;5033763;28;20622;-63
2023/08/06 01:53:14;;;;;;;3.20;3.00;;;18.20;91.80;;;20.94;59.79;100562.78;5033644;28;20221;-62
2023/08/06 01:55:41;;;;;;;3.37;3.07;;;18.10;91.90;;;20.93;59.99;100563.84;5033646;28;20238;-62
2023/08/06 01:58:08;;;;;;;3.50;3.20;;;18.10;91.90;;;20.90;59.81;100563.50;5033746;28;20248;-62
2023/08/06 02:00:35;;;;;;;3.30;3.00;;;18.10;91.90;;;20.90;59.89;100552.81;5033733;28;20207;-62
2023/08/06 02:03:02;;;;;;;2.70;2.50;;;18.10;91.90;;;20.84;59.73;100549.28;5033651;28;20195;-62
2023/08/06 02:05:29;;;;;;;2.60;2.40;;;18.10;91.80;;;20.78;59.46;100549.44;5033968;28;20218;-63
2023/08/06 02:07:56;;;;;;;3.97;2.60;;;18.10;91.80;;;20.74;59.61;100549.13;5033717;28;20217;-61
2023/08/06 02:10:25;;;;;;;2.70;2.50;;;18.00;91.80;;;20.75;59.92;100550.72;5033325;28;20282;-60
2023/08/06 02:12:52;;;;;;;2.57;2.37;;;18.00;91.90;;;20.76;59.75;100555.03;5033619;28;20191;-62
2023/08/06 02:15:19;;;;;;;3.20;2.90;;;18.00;92.20;;;20.81;59.79;100544.41;5033721;28;20206;-59
2023/08/06 02:17:46;;;;;;;3.07;2.77;;;18.00;92.20;;;20.84;59.73;100546.59;5037574;28;20201;-62
2023/08/06 02:20:13;;;;;;;2.60;2.33;;;18.00;92.30;;;20.85;60.04;100540.19;5037456;28;20710;-63
2023/08/06 02:22:40;;;;;;;2.57;2.37;;;18.00;92.10;;;20.86;59.56;100551.69;5037495;28;20210;-61
2023/08/06 02:25:08;;;;;;;2.50;2.30;;;18.10;92.10;;;20.87;59.80;100548.75;5037182;28;20577;-60
2023/08/06 02:27:37;;;;;;;2.80;2.33;;;18.10;92.10;;;20.89;59.80;100546.63;5037714;28;20616;-62
2023/08/06 02:30:06;;;;;;;3.03;2.73;;;18.10;92.10;;;20.93;59.64;100541.63;5037254;28;20305;-62
2023/08/06 02:32:35;;;;;;;2.50;2.30;;;18.10;92.10;;;20.94;59.86;100537.91;5037520;28;20206;-62
2023/08/06 02:35:03;;;;;;;2.80;2.60;;;18.10;92.00;;;20.94;59.35;100543.25;5037207;28;20230;-60
2023/08/06 02:37:30;;;;;;;3.10;2.40;;;18.10;92.00;;;20.96;59.74;100533.09;5036910;28;20605;-62
2023/08/06 02:39:57;;;;;;;2.57;2.37;;;18.10;92.30;;;21.01;59.86;100533.19;5036728;28;20218;-62
2023/08/06 02:42:25;;;;;;;3.00;2.70;;;18.10;92.20;;;21.05;59.64;100534.31;5037284;28;20248;-61
2023/08/06 02:44:56;;;;;;;4.63;3.07;;;18.20;92.30;;;21.07;59.62;100526.03;5036875;28;20545;-61
2023/08/06 02:47:24;;;;;;;2.93;2.50;;;18.20;92.40;;;21.10;60.06;100537.06;5035888;28;20244;-61
2023/08/06 02:49:51;;;;;;;2.43;2.23;;;18.20;92.30;;;21.13;59.57;100528.56;5036737;28;20214;-61
2023/08/06 02:52:18;;;;;;;3.70;2.67;;;18.20;92.20;;;21.15;59.78;100534.47;5036882;28;20644;-62
2023/08/06 02:54:45;;;;;;;4.27;2.93;;;18.30;92.20;;;21.14;59.32;100527.47;5036856;28;20650;-60
2023/08/06 02:57:12;;;;;;;3.17;2.83;;;18.30;92.20;;;21.14;59.87;100522.13;5036974;28;20195;-61
2023/08/06 02:59:39;;;;;;;2.27;2.13;;;18.20;92.10;;;21.13;59.43;100512.47;5036590;28;20233;-62
2023/08/06 03:02:07;;;;;;;3.33;2.40;;;18.20;92.10;;;21.16;59.95;100513.81;5036789;28;20273;-62
2023/08/06 03:04:34;;;;;;;2.63;2.40;;;18.30;92.10;;;21.14;59.26;100511.41;5036700;28;20190;-61
2023/08/06 03:07:01;;;;;;;3.27;2.97;;;18.20;92.00;;;21.11;59.33;100498.50;5035665;28;20249;-62
2023/08/06 03:09:28;;;;;;;3.00;2.33;;;18.30;92.10;;;21.13;59.67;100504.44;5036739;28;20218;-61
2023/08/06 03:11:55;;;;;;;2.80;2.60;;;18.30;92.20;;;21.14;59.67;100495.34;5036529;28;20572;-60
2023/08/06 03:14:22;;;;;;;2.50;2.30;;;18.30;92.00;;;21.13;59.55;100501.78;5036719;28;20647;-62
2023/08/06 03:16:49;;;;;;;2.97;2.77;;;18.30;91.80;;;21.12;59.30;100502.81;5036533;28;20190;-62
2023/08/06 03:19:17;;;;;;;2.97;2.77;;;18.30;91.80;;;21.11;59.56;100501.19;5035984;28;20223;-61
2023/08/06 03:21:44;;;;;;;3.53;2.47;;;18.20;91.90;;;21.10;59.50;100496.91;5035962;28;20194;-60
2023/08/06 03:24:13;;;;;;;3.33;3.03;;;18.20;91.90;;;21.09;59.61;100495.28;5036113;28;20269;-61
2023/08/06 03:26:40;;;;;;;3.53;2.40;;;18.20;92.00;;;21.07;59.31;100489.38;5036018;28;20265;-63
2023/08/06 03:29:07;;;;;;;4.30;2.67;;;18.20;92.10;;;21.06;59.25;100487.75;5035412;28;20197;-63
2023/08/06 03:31:34;;;;;;;3.30;2.77;;;18.20;92.10;;;21.07;59.83;100481.34;5036159;28;20245;-63
2023/08/06 03:34:01;;;;;;;3.73;3.00;;;18.20;92.10;;;21.08;59.36;100485.66;5035925;28;20201;-63
2023/08/06 03:36:30;;;;;;;2.80;2.50;;;18.20;92.00;;;21.09;59.22;100475.72;5035830;28;20207;-63
2023/08/06 03:38:57;;;;;;;2.87;2.63;;;18.20;92.00;;;21.09;59.66;100476.53;5035898;28;20681;-62
2023/08/06 03:41:24;;;;;;;2.53;2.33;;;18.20;91.90;;;21.07;58.94;100478.66;5035697;28;20217;-62
2023/08/06 03:43:51;;;;;;;2.60;2.40;;;18.20;91.70;;;21.05;59.56;100464.72;5035882;28;20681;-62
2023/08/06 03:46:18;;;;;;;3.10;2.80;;;18.20;91.90;;;21.06;59.34;100469.00;5036559;28;20635;-62
2023/08/06 03:48:45;;;;;;;3.40;3.10;;;18.20;91.90;;;21.06;59.05;100458.28;5036867;28;20190;-63
2023/08/06 03:51:12;;;;;;;2.77;2.57;;;18.20;92.00;;;21.07;59.91;100461.78;5038367;28;20214;-62
2023/08/06 03:53:40;;;;;;;3.27;3.07;;;18.20;92.10;;;21.08;59.48;100453.53;5038642;28;20222;-64
2023/08/06 03:56:07;;;;;;;2.90;2.70;;;18.20;92.00;;;21.11;59.31;100453.00;5035747;28;20212;-63
2023/08/06 03:58:34;;;;;;;3.40;3.10;;;18.20;92.00;;;21.14;59.40;100452.50;5035767;28;20187;-62
2023/08/06 04:01:03;;;;;;;2.83;2.50;;;18.20;92.00;;;21.15;59.17;100454.16;5035696;28;20210;-62
2023/08/06 04:03:30;;;;;;;3.77;3.47;;;18.20;92.10;;;21.18;59.58;100448.25;5035666;28;20535;-63
2023/08/06 04:05:57;;;;;;;3.27;2.97;;;18.20;92.00;;;21.20;58.48;100456.88;5035486;28;20548;-63
2023/08/06 04:08:24;;;;;;;3.87;3.57;;;18.30;91.70;;;21.19;58.74;100460.59;5035896;28;20655;-63
2023/08/06 04:10:53;;;;;;;3.57;3.30;;;18.30;91.80;;;21.19;58.66;100460.59;5035815;28;20211;-63
2023/08/06 04:13:20;;;;;;;3.63;3.10;;;18.30;91.70;;;21.19;58.70;100452.56;5035579;28;20207;-63
2023/08/06 04:15:47;;;;;;;2.87;2.60;;;18.20;91.60;;;21.19;58.66;100465.97;5035344;28;20218;-63
2023/08/06 04:18:16;;;;;;;3.33;3.03;;;18.30;91.70;;;21.20;59.07;100462.25;5035384;28;20226;-63
2023/08/06 04:20:44;;;;;;;3.27;2.87;;;18.30;91.80;;;21.21;58.98;100457.66;5035181;28;20511;-62
2023/08/06 04:23:12;;;;;;;3.17;2.87;;;18.30;91.80;;;21.21;59.11;100463.84;5035291;28;20706;-63
2023/08/06 04:25:39;;;;;;;3.33;3.13;;;18.30;91.80;;;21.19;58.84;100463.28;5034845;28;20269;-67
2023/08/06 04:28:08;;;;;;;4.20;3.30;;;18.30;91.70;;;21.19;58.91;100465.97;5035360;28;20195;-63
2023/08/06 04:30:36;;;;;;;3.80;3.50;;;18.30;91.60;;;21.17;58.79;100459.25;5034903;28;20701;-63
2023/08/06 04:33:03;;;;;;;3.67;3.37;;;18.30;91.70;;;21.15;58.50;100464.03;5034795;28;20190;-63
2023/08/06 04:35:31;;;;;;;3.57;3.27;;;18.20;91.50;;;21.10;58.31;100456.75;5034853;28;20232;-61
2023/08/06 04:37:58;;;;;;;3.57;3.27;;;18.20;91.60;;;21.12;58.65;100457.31;5034424;28;20198;-63
2023/08/06 04:40:25;;;;;;;3.83;3.43;;;18.20;91.80;;;21.13;59.12;100456.28;5033670;28;20233;-63
2023/08/06 04:42:53;;;;;;;4.07;3.67;;;18.20;91.80;;;21.17;58.82;100473.44;5034809;28;20207;-63
2023/08/06 04:45:23;;;;;;;6.17;4.80;;;18.20;91.90;;;21.17;58.61;100468.09;5034746;28;20205;-63
2023/08/06 04:47:50;;;;;;;4.77;4.37;;;18.20;91.80;;;21.17;58.65;100462.72;5035177;28;20287;-62
2023/08/06 04:50:17;;;;;;;4.23;3.93;;;18.20;91.60;;;21.16;58.34;100469.13;5034626;28;20242;-62
2023/08/06 04:52:44;;;;;;;4.30;4.00;;;18.20;91.60;;;21.15;58.41;100464.84;5034954;28;20194;-63
2023/08/06 04:55:12;;;;;;;4.63;4.23;;;18.20;91.70;;;21.15;59.04;100459.50;5034549;28;20225;-62
2023/08/06 04:57:39;;;;;;;4.53;4.13;;;18.20;91.90;;;21.19;58.69;100467.81;5034217;28;20273;-63
2023/08/06 05:00:07;;;;;;;4.53;4.13;;;18.20;91.90;;;21.21;58.65;100453.13;5034102;28;20214;-63
2023/08/06 05:02:38;;;;;;;5.67;4.10;;;18.20;91.70;;;21.22;58.74;100453.94;5034596;28;20194;-63
2023/08/06 05:05:06;;;;;;;4.90;4.43;;;18.20;91.80;;;21.23;58.83;100456.34;5034798;28;20221;-62
2023/08/06 05:07:33;;;;;;;5.63;5.10;;;18.20;91.80;;;21.23;58.23;100467.06;5034618;28;20527;-62
2023/08/06 05:10:00;;;;;;;4.53;4.13;;;18.20;91.70;;;21.24;58.64;100463.34;5035818;28;20305;-63
2023/08/06 05:12:27;;;;;;;5.23;4.77;;;18.30;91.80;;;21.25;58.82;100464.94;5037846;28;20194;-62
2023/08/06 05:14:54;;;;;;;4.40;4.10;;;18.30;91.80;;;21.27;58.72;100464.72;5036406;28;20187;-62
2023/08/06 05:17:22;;;;;;;6.07;4.50;;;18.20;91.60;;;21.27;58.37;100468.22;5035267;28;20250;-62
2023/08/06 05:19:51;;;;;;;4.47;4.07;;;18.20;91.70;;;21.28;58.14;100459.09;5034357;28;20219;-62
2023/08/06 05:22:18;;;;;;;4.23;3.83;;;18.20;91.70;;;21.28;58.41;100453.75;5034614;28;20222;-61
2023/08/06 05:24:45;;;;;;;4.80;4.07;;;18.30;91.80;;;21.29;58.62;100460.72;5034217;28;20194;-62
2023/08/06 05:27:12;;;;;;;5.13;3.97;;;18.20;91.70;;;21.30;58.46;100458.88;5034232;28;20252;-61
2023/08/06 05:29:39;;;;;;;4.47;4.00;;;18.30;91.90;;;21.32;58.75;100460.19;5033969;28;20234;-62
2023/08/06 05:32:07;;;;;;;4.47;4.07;;;18.30;91.90;;;21.38;58.88;100469.09;5034287;28;20290;-63
2023/08/06 05:34:34;;;;;;;5.30;4.20;;;18.30;92.00;;;21.41;58.22;100460.56;5034433;28;20278;-63
2023/08/06 05:37:03;;;;;;;4.90;4.47;;;18.30;91.80;;;21.45;58.26;100465.19;5033702;28;20219;-62
2023/08/06 05:39:30;;;;;;;4.47;4.17;;;18.40;91.80;;;21.49;58.51;100460.91;5033565;28;20218;-62
2023/08/06 05:41:57;;;;;;;6.23;4.70;;;18.40;91.70;;;21.52;57.89;100471.13;5033681;28;20210;-60
2023/08/06 05:44:24;;;;;;;4.90;4.50;;;18.40;91.50;;;21.53;58.26;100467.41;5033665;28;20193;-62
2023/08/06 05:46:53;;;;;;;4.83;4.40;;;18.40;91.60;;;21.56;58.31;100469.56;5033506;28;20191;-60
2023/08/06 05:49:20;;;;;;;4.80;4.40;;;18.40;91.70;;;21.55;57.41;100476.00;5033447;28;20750;-62
2023/08/06 05:51:48;;;;;;;4.60;4.20;;;18.50;91.50;;;21.57;57.92;100468.50;5032871;28;20540;-62
2023/08/06 05:54:16;;;;;;;4.17;3.87;;;18.50;91.90;;;21.58;57.72;100470.13;5033490;28;20208;-62
2023/08/06 05:56:43;;;;;;;4.77;4.33;;;18.50;91.50;;;21.60;57.82;100467.19;5034162;28;20202;-61
2023/08/06 05:59:10;;;;;;;4.20;3.90;;;18.50;91.50;;;21.63;57.53;100471.25;5033106;28;20610;-61
2023/08/06 06:01:37;;;;;;;3.90;3.60;;;18.50;91.60;;;21.66;57.79;100471.53;5033782;28;20678;-61
2023/08/06 06:04:04;;;;;;;3.80;3.50;;;18.50;91.50;;;21.67;57.69;100475.84;5033714;28;20191;-62
2023/08/06 06:06:31;;;;;;;4.80;4.40;;;18.50;91.40;;;21.70;57.78;100471.84;5033775;28;20194;-62
2023/08/06 06:08:58;;;;;;;4.23;3.83;;;18.60;91.60;;;21.75;57.31;100472.69;5033035;28;20277;-63
2023/08/06 06:11:27;;;;;;;4.47;3.87;;;18.60;91.50;;;21.78;57.26;100466.81;5033371;28;20277;-63
2023/08/06 06:13:54;;;;;;;4.77;4.37;;;18.60;91.40;;;21.76;57.60;100465.47;5033078;28;20221;-61
2023/08/06 06:16:21;;;;;;;5.13;4.60;;;18.60;91.10;;;21.70;57.35;100466.50;5033325;28;20277;-62
2023/08/06 06:18:48;;;;;;;4.57;3.97;;;18.70;91.10;;;21.68;57.55;100471.31;5033206;28;20205;-62
2023/08/06 06:21:15;;;;;;;4.30;3.90;;;18.70;91.10;;;21.66;57.40;100476.06;5033349;28;20206;-62
2023/08/06 06:23:42;;;;;;;3.90;3.60;;;18.70;91.10;;;21.66;57.32;100465.34;5033683;28;20198;-62
2023/08/06 06:26:10;;;;;;;3.80;3.50;;;18.70;91.10;;;21.65;57.28;100466.44;5033483;28;20190;-62
2023/08/06 06:28:38;;;;;;;4.13;3.73;;;18.60;91.00;;;21.69;57.48;100459.50;5033167;28;20197;-62
2023/08/06 06:31:05;;;;;;;3.50;3.20;;;18.60;90.90;;;21.76;57.65;100460.09;5033003;28;20214;-62
2023/08/06 06:33:32;;;;;;;4.07;3.77;;;18.60;91.20;;;21.83;57.43;100460.69;5033087;28;20671;-62
2023/08/06 06:35:59;;;;;;;4.63;3.77;;;18.70;91.30;;;21.90;56.97;100466.69;5033212;28;20219;-62
2023/08/06 06:38:26;;;;;;;3.63;3.33;;;18.70;91.30;;;21.97;56.77;100467.28;5032953;28;20209;-60
2023/08/06 06:40:54;;;;;;;4.73;4.10;;;18.80;91.30;;;22.00;56.58;100477.50;5033187;28;20578;-62
2023/08/06 06:43:22;;;;;;;3.63;3.33;;;18.80;90.90;;;21.99;56.44;100478.53;5032048;28;20199;-61
2023/08/06 06:45:57;;;;;;;3.10;2.90;;;18.90;90.70;;;21.96;56.05;100471.03;5033215;28;20222;-61
2023/08/06 06:48:27;;;;;;;3.53;3.23;;;18.90;90.60;;;21.98;56.57;100480.44;5033214;28;20223;-59
2023/08/06 06:50:55;;;;;;;3.80;3.50;;;18.80;90.60;;;21.98;56.48;100475.09;5033354;28;20289;-60
2023/08/06 06:53:27;;;;;;;3.57;3.37;;;18.90;90.70;;;22.01;56.14;100473.75;5032979;28;20207;-61
2023/08/06 06:55:54;;;;;;;2.97;2.77;;;18.90;90.60;;;22.01;56.61;100485.28;5032955;28;20218;-62
2023/08/06 06:58:21;;;;;;;3.33;3.10;;;18.90;90.70;;;22.05;56.21;100482.91;5033520;28;20277;-61
2023/08/06 07:00:49;;;;;;;3.97;2.90;;;18.90;90.80;;;22.04;55.86;100478.59;5034161;28;20206;-62
2023/08/06 07:03:18;;;;;;;3.63;3.30;;;18.90;90.50;;;22.02;56.23;100478.84;5036837;28;20667;-62
2023/08/06 07:05:45;;;;;;;4.17;3.87;;;19.00;90.50;;;21.99;55.66;100483.91;5036707;28;20608;-61
2023/08/06 07:08:12;;;;;;;3.93;3.53;;;19.00;90.20;;;21.98;55.97;100480.44;5035555;28;20194;-61
2023/08/06 07:10:42;;;;;;;4.17;3.70;;;19.00;90.30;;;22.05;56.14;100482.91;5036516;28;20246;-63
2023/08/06 07:13:10;;;;;;;3.30;3.00;;;19.00;90.40;;;22.14;56.07;100484.03;5036346;28;20183;-63
2023/08/06 07:15:37;;;;;;;3.50;3.20;;;19.00;90.40;;;22.18;55.67;100483.28;5036389;28;20278;-62
2023/08/06 07:18:04;;;;;;;3.10;2.90;;;19.00;90.30;;;22.21;55.41;100485.44;5036243;28;20671;-61
2023/08/06 07:20:34;;;;;;;4.40;4.00;;;19.10;90.30;;;22.27;55.53;100484.41;5036006;28;20636;-62
2023/08/06 07:23:01;;;;;;;3.50;3.20;;;19.10;90.20;;;22.30;55.39;100483.09;5036283;28;20205;-62
2023/08/06 07:25:28;;;;;;;4.27;3.93;;;19.10;90.20;;;22.37;55.43;100483.66;5036188;28;20226;-59
2023/08/06 07:27:56;;;;;;;4.40;4.00;;;19.20;90.10;;;22.45;54.78;100483.19;5036119;28;20237;-62
2023/08/06 07:30:23;;;;;;;3.77;3.47;;;19.20;90.20;;;22.49;55.17;100486.97;5036083;28;20272;-62
2023/08/06 07:32:50;;;;;;;3.53;3.23;;;19.30;90.10;;;22.56;54.90;100476.81;5036183;28;20236;-63
2023/08/06 07:35:18;;;;;;;4.03;3.60;;;19.30;90.10;;;22.69;54.88;100481.78;5035928;28;20201;-63
2023/08/06 07:37:46;;;;;;;3.73;3.43;;;19.40;90.20;;;22.84;54.39;100481.03;5035624;28;20278;-62
2023/08/06 07:40:14;;;;;;;3.07;2.83;;;19.50;89.60;;;22.96;54.10;100478.13;5035484;28;20610;-62
2023/08/06 07:42:41;;;;;;;3.20;2.90;;;19.50;89.60;;;23.08;53.89;100484.09;5035917;28;20202;-62
2023/08/06 07:45:09;;;;;;;2.53;2.33;;;19.60;89.50;;;23.19;53.94;100481.19;5035790;28;20205;-62
2023/08/06 07:47:37;;;;;;;3.30;2.97;;;19.70;89.50;;;23.27;53.67;100485.25;5034327;28;20290;-61
2023/08/06 07:50:05;;;;;;;3.23;2.93;;;19.80;89.10;;;23.30;53.30;100487.38;5036554;28;20305;-61
2023/08/06 07:52:32;;;;;;;3.40;3.10;;;19.90;88.70;;;23.37;53.44;100482.59;5035829;28;20290;-62
2023/08/06 07:55:04;;;;;;;3.27;3.07;;;19.90;88.50;;;23.52;53.00;100480.75;5035517;28;20539;-63
2023/08/06 07:57:32;;;;;;;2.97;2.67;;;20.00;88.10;;;23.68;52.74;100478.91;5035698;28;20225;-63
2023/08/06 07:59:59;;;;;;;2.90;2.70;;;20.10;88.20;;;23.84;52.21;100479.72;5034220;28;20206;-62
2023/08/06 08:02:27;;;;;;;3.20;2.87;;;20.20;87.90;;;24.09;51.91;100475.19;5035602;28;20194;-62
2023/08/06 08:04:54;;;;;;;3.30;3.00;;;20.30;87.80;;;24.34;51.25;100478.94;5035150;28;20194;-62
2023/08/06 08:07:21;;;;;;;3.53;2.80;;;20.50;87.50;;;24.77;51.15;100473.72;5035214;28;20191;-63
2023/08/06 08:09:48;;;;;;;3.03;2.83;;;20.70;87.00;;;26.05;49.20;100470.06;5035319;28;20702;-63
2023/08/06 08:12:16;;;;;;;4.60;3.03;;;21.00;87.50;;;27.60;47.02;100469.34;5035198;28;20762;-63
2023/08/06 08:14:45;;;;;;;2.60;2.40;;;21.60;87.70;;;28.75;43.83;100463.88;5034454;28;20644;-63
2023/08/06 08:17:12;;;;;;;3.07;2.77;;;22.30;84.70;;;29.81;42.03;100460.78;5035252;28;20245;-63
2023/08/06 08:19:40;;;;;;;2.60;2.40;;;23.10;82.60;;;30.91;40.26;100458.94;5033762;28;20314;-63
2023/08/06 08:22:07;;;;;;;2.50;2.30;;;23.80;81.00;;;31.96;37.75;100457.53;5035020;28;20252;-63
2023/08/06 08:24:34;;;;;;;3.07;2.83;;;24.70;76.70;;;32.86;35.93;100453.56;5034661;28;20195;-64
2023/08/06 08:27:02;;;;;;;2.50;2.30;;;25.40;74.70;;;33.46;34.94;100449.63;5034663;28;20193;-62
2023/08/06 08:29:30;;;;;;;2.57;2.37;;;26.20;71.70;;;34.20;33.69;100442.19;5034505;28;20231;-61
2023/08/06 08:31:58;;;;;;;2.47;2.27;;;26.80;69.30;;;34.94;31.57;100449.31;5035402;28;20202;-63
2023/08/06 08:34:26;;;;;;;2.67;2.47;;;27.40;64.80;;;35.60;30.67;100442.31;5034878;28;20186;-62
2023/08/06 08:36:53;;;;;;;2.47;2.27;;;28.00;62.90;;;35.98;29.39;100437.13;5033727;28;20280;-63
2023/08/06 08:39:20;;;;;;;2.10;2.00;;;28.40;60.40;;;36.18;28.67;100448.19;5034239;28;20218;-62
2023/08/06 08:41:47;;;;;;;2.40;2.07;;;28.80;58.60;;;35.93;29.28;100436.53;5034543;28;20202;-62
2023/08/06 08:44:17;;;;;;;2.50;2.30;;;29.10;58.00;;;35.54;29.55;100442.94;5034239;28;20191;-62
2023/08/06 08:46:49;;;;;;;2.93;2.73;;;29.20;56.60;;;35.44;29.35;100441.44;5034196;28;20538;-62
2023/08/06 08:49:17;;;;;;;2.30;2.10;;;29.20;56.40;;;35.06;29.67;100439.16;5034272;28;20210;-62
2023/08/06 08:51:46;;;;;;;3.00;2.80;;;29.10;56.10;;;34.59;30.54;100427.88;5034400;28;20573;-62
2023/08/06 08:54:16;;;;;;;2.80;2.30;;;28.90;56.00;;;34.39;30.77;100427.97;5034003;28;20190;-62
2023/08/06 08:56:44;;;;;;;2.90;2.70;;;28.70;56.60;;;34.47;31.11;100430.59;5034500;28;20210;-61
2023/08/06 08:59:11;;;;;;;3.63;3.30;;;28.70;57.10;;;34.57;30.71;100430.16;5033859;28;20190;-60
2023/08/06 09:01:42;;;;;;;3.07;2.83;;;28.60;56.30;;;34.53;30.32;100428.47;5034310;28;20197;-63
2023/08/06 09:04:12;;;;;;;2.70;2.50;;;28.60;56.00;;;34.28;30.91;100422.13;5034443;28;20214;-65
2023/08/06 09:06:41;;;;;;;3.00;2.80;;;28.60;56.80;;;34.60;30.59;100425.94;5033963;28;20539;-61
2023/08/06 09:09:13;;;;;;;2.77;2.57;;;28.60;57.20;;;35.22;29.90;100417.31;5034233;28;20217;-62
2023/08/06 09:11:44;;;;;;;3.33;3.00;;;28.70;57.40;;;36.06;28.68;100423.59;5034483;28;20206;-63
2023/08/06 09:14:12;;;;;;;4.90;4.03;;;28.90;56.70;;;36.86;27.89;100424.78;5034425;28;20232;-62
2023/08/06 09:16:39;;;;;;;4.47;4.05;;;29.30;56.60;;;37.88;26.61;100415.97;5033779;28;20698;-63
2023/08/06 09:19:17;;;;;;;2.67;2.47;;;29.80;55.30;;;38.84;25.50;100417.53;5034000;28;20249;-63
2023/08/06 09:21:49;;;;;;;2.55;2.35;;;30.20;53.60;;;39.46;25.14;100416.81;5034234;28;20285;-63
2023/08/06 09:24:16;;;;;;;3.15;2.85;;;30.70;52.70;;;39.75;24.11;100418.69;5033228;28;20194;-64
2023/08/06 09:26:44;;;;;;;3.58;2.47;;;31.10;51.20;;;40.13;24.19;100417.50;5033079;28;20222;-63
2023/08/06 09:29:11;;;;;;;2.33;2.15;;;31.40;50.40;;;40.59;23.13;100417.88;5033181;28;20214;-63
2023/08/06 09:31:43;;;;;;;2.40;2.20;;;31.70;49.40;;;40.73;22.42;100412.44;5033693;28;20566;-63
2023/08/06 09:34:16;;;;;;;2.05;1.83;;;32.00;47.20;;;40.78;22.33;100417.59;5033492;28;20191;-63
2023/08/06 09:36:47;;;;;;;2.10;2.00;;;32.20;46.90;;;41.22;22.70;100413.91;5033223;28;20297;-63
2023/08/06 09:39:16;;;;;;;2.33;2.22;;;32.50;47.50;;;41.42;21.38;100417.94;5033806;28;20261;-63
2023/08/06 09:41:45;;;;;;;2.22;2.05;;;32.60;44.80;;;41.53;21.58;100421.53;5033448;28;20300;-63
2023/08/06 09:44:17;;;;;;;2.80;2.60;;;32.80;45.20;;;41.76;21.83;100413.72;5033011;28;20572;-63
2023/08/06 09:46:48;;;;;;;2.70;2.50;;;33.10;45.00;;;42.12;21.41;100411.78;5033465;28;20269;-64
2023/08/06 09:49:18;;;;;;;2.67;2.47;;;33.30;44.70;;;42.30;20.65;100413.38;5033053;28;20304;-62
2023/08/06 09:51:50;;;;;;;1.80;1.70;;;33.40;42.90;;;42.36;20.28;100406.25;5033432;28;20178;-61
2023/08/06 09:54:19;;;;;;;2.20;2.10;;;33.60;41.90;;;42.58;20.18;100417.31;5033575;28;20561;-64
2023/08/06 09:56:54;;;;;;;2.47;2.28;;;33.80;41.80;;;42.93;20.46;100403.41;5033055;28;20497;-63
2023/08/06 09:59:23;;;;;;;1.70;1.58;;;34.10;42.20;;;43.37;20.05;100406.38;5032994;28;20207;-64
2023/08/06 10:01:51;;;;;;;2.90;2.70;;;34.30;41.60;;;43.54;19.50;100405.50;5033648;28;20190;-63
2023/08/06 10:04:21;;;;;;;2.30;2.17;;;34.60;40.90;;;43.68;20.10;100402.66;5032328;28;20285;-63
2023/08/06 10:06:54;;;;;;;2.55;2.35;;;35.00;40.90;;;44.10;18.94;100409.88;5033329;28;20190;-63
2023/08/06 10:09:21;;;;;;;2.10;1.98;;;35.20;39.70;;;44.33;19.15;100398.19;5033072;28;20333;-63
2023/08/06 10:11:54;;;;;;;3.20;2.05;;;35.40;39.60;;;44.50;18.63;100402.81;5033306;28;20671;-63
2023/08/06 10:14:28;;;;;;;3.38;2.30;;;35.50;37.70;;;44.42;17.75;100401.28;5032340;28;20182;-63
2023/08/06 10:16:57;;;;;;;7.75;5.35;;;35.70;37.00;;;44.50;18.13;100399.25;5032768;28;20191;-63